createdAt,value
2023-04-15T00:00:01.882Z,5.32
2023-04-15T00:04:56.605Z,5.75
2023-04-15T00:07:23.660Z,5.10
2023-04-15T00:09:55.107Z,4.97
2023-04-15T00:12:22.513Z,5.40
2023-04-15T00:14:54.376Z,5.22
2023-04-15T00:17:21.447Z,5.05
2023-04-15T00:19:50.936Z,5.07
2023-04-15T00:22:18.331Z,6.13
2023-04-15T00:24:45.278Z,5.60
2023-04-15T00:27:12.263Z,5.55
2023-04-15T00:29:39.323Z,5.43
2023-04-15T00:32:06.779Z,5.25
2023-04-15T00:34:33.973Z,5.88
2023-04-15T00:37:01.035Z,6.57
2023-04-15T00:39:28.228Z,5.93
2023-04-15T00:41:56.041Z,5.85
2023-04-15T00:44:23.209Z,7.38
2023-04-15T00:46:52.150Z,6.88
2023-04-15T00:49:19.396Z,6.97
2023-04-15T00:51:46.443Z,6.75
2023-04-15T00:54:13.683Z,7.32
2023-04-15T00:56:41.023Z,7.90
2023-04-15T00:59:09.016Z,7.22
2023-04-15T01:01:38.519Z,7.97
2023-04-15T01:04:06.273Z,7.17
2023-04-15T01:06:33.610Z,7.18
2023-04-15T01:09:01.208Z,6.28
2023-04-15T01:11:28.909Z,6.88
2023-04-15T01:13:57.499Z,6.47
2023-04-15T01:16:24.991Z,6.85
2023-04-15T01:18:52.311Z,6.25
2023-04-15T01:21:20.011Z,5.90
2023-04-15T01:23:51.667Z,6.03
2023-04-15T01:26:18.756Z,6.22
2023-04-15T01:28:45.872Z,6.70
2023-04-15T01:31:14.329Z,6.30
2023-04-15T01:33:43.384Z,6.00
2023-04-15T01:36:10.947Z,6.10
2023-04-15T01:38:39.200Z,6.00
2023-04-15T01:41:08.246Z,5.55
2023-04-15T01:43:39.166Z,6.07
2023-04-15T01:46:07.285Z,5.75
2023-04-15T01:48:34.577Z,6.65
2023-04-15T01:51:02.210Z,6.00
2023-04-15T01:53:29.541Z,6.03
2023-04-15T01:55:56.710Z,6.20
2023-04-15T01:58:23.560Z,6.30
2023-04-15T02:00:50.767Z,6.43
2023-04-15T02:03:18.281Z,5.95
2023-04-15T02:05:45.414Z,5.80
2023-04-15T02:08:12.568Z,6.57
2023-04-15T02:10:39.709Z,6.20
2023-04-15T02:13:06.654Z,5.88
2023-04-15T02:15:33.694Z,5.75
2023-04-15T02:18:02.090Z,6.03
2023-04-15T02:20:30.605Z,6.30
2023-04-15T02:22:57.566Z,5.75
2023-04-15T02:25:24.591Z,6.30
2023-04-15T02:27:51.685Z,6.13
2023-04-15T02:30:18.790Z,6.25
2023-04-15T02:32:46.087Z,6.68
2023-04-15T02:35:13.366Z,6.20
2023-04-15T02:37:45.981Z,6.65
2023-04-15T02:40:16.435Z,6.40
2023-04-15T02:45:23.902Z,5.90
2023-04-15T02:47:52.653Z,5.93
2023-04-15T02:50:20.110Z,6.40
2023-04-15T02:52:47.226Z,6.53
2023-04-15T02:55:14.712Z,5.90
2023-04-15T02:57:41.937Z,6.30
2023-04-15T03:00:11.775Z,6.45
2023-04-15T03:02:42.457Z,5.65
2023-04-15T03:05:13.964Z,5.70
2023-04-15T03:07:41.196Z,6.65
2023-04-15T03:10:09.458Z,6.78
2023-04-15T03:12:36.453Z,6.22
2023-04-15T03:15:03.820Z,6.40
2023-04-15T03:17:31.092Z,6.57
2023-04-15T03:19:58.037Z,5.88
2023-04-15T03:22:26.557Z,6.50
2023-04-15T03:24:53.492Z,5.80
2023-04-15T03:27:20.425Z,6.43
2023-04-15T03:29:47.468Z,6.18
2023-04-15T03:32:15.317Z,6.07
2023-04-15T03:34:42.551Z,5.90
2023-04-15T03:37:09.642Z,6.53
2023-04-15T03:39:39.618Z,6.57
2023-04-15T03:42:06.769Z,5.93
2023-04-15T03:44:33.886Z,6.10
2023-04-15T03:47:01.244Z,6.00
2023-04-15T03:49:28.128Z,5.82
2023-04-15T03:51:55.212Z,6.47
2023-04-15T03:54:22.237Z,6.75
2023-04-15T03:56:49.192Z,5.90
2023-04-15T03:59:16.136Z,5.60
2023-04-15T04:01:44.033Z,6.25
2023-04-15T04:04:11.123Z,6.28
2023-04-15T04:06:38.095Z,6.43
2023-04-15T04:09:05.117Z,6.43
2023-04-15T04:11:33.123Z,6.43
2023-04-15T04:13:59.986Z,6.63
2023-04-15T04:16:27.035Z,6.10
2023-04-15T04:18:54.159Z,6.63
2023-04-15T04:21:21.705Z,6.22
2023-04-15T04:23:48.634Z,6.25
2023-04-15T04:26:15.531Z,6.70
2023-04-15T04:28:42.372Z,6.25
2023-04-15T04:31:09.407Z,6.50
2023-04-15T04:33:36.389Z,6.78
2023-04-15T04:36:03.552Z,7.05
2023-04-15T04:38:30.516Z,6.32
2023-04-15T04:40:57.430Z,7.07
2023-04-15T04:43:24.611Z,6.72
2023-04-15T04:45:51.516Z,7.22
2023-04-15T04:48:18.656Z,6.47
2023-04-15T04:50:47.042Z,6.38
2023-04-15T04:53:13.903Z,6.68
2023-04-15T04:55:40.790Z,6.68
2023-04-15T04:58:07.740Z,6.68
2023-04-15T05:00:34.838Z,6.85
2023-04-15T05:03:01.923Z,6.72
2023-04-15T05:05:28.927Z,6.57
2023-04-15T05:07:55.806Z,6.80
2023-04-15T05:10:22.718Z,6.35
2023-04-15T05:12:50.531Z,6.95
2023-04-15T05:15:17.479Z,6.40
2023-04-15T05:17:44.774Z,7.00
2023-04-15T05:20:12.572Z,6.40
2023-04-15T05:22:39.450Z,6.80
2023-04-15T05:25:06.702Z,7.00
2023-04-15T05:27:33.539Z,6.95
2023-04-15T05:30:00.622Z,6.68
2023-04-15T05:32:27.532Z,6.60
2023-04-15T05:34:54.399Z,6.60
2023-04-15T05:37:22.428Z,7.07
2023-04-15T05:39:49.895Z,6.55
2023-04-15T05:42:16.888Z,6.30
2023-04-15T05:44:43.950Z,6.88
2023-04-15T05:47:11.076Z,6.63
2023-04-15T05:49:38.063Z,7.13
2023-04-15T05:52:05.192Z,7.07
2023-04-15T05:54:32.286Z,6.45
2023-04-15T05:56:59.154Z,7.07
2023-04-15T05:59:26.158Z,6.90
2023-04-15T06:01:53.819Z,7.07
2023-04-15T06:04:20.913Z,7.35
2023-04-15T06:06:48.214Z,6.80
2023-04-15T06:09:15.282Z,6.75
2023-04-15T06:11:42.160Z,7.60
2023-04-15T06:14:09.717Z,6.40
2023-04-15T06:16:36.829Z,6.78
2023-04-15T06:19:04.053Z,6.47
2023-04-15T06:21:31.708Z,6.78
2023-04-15T06:24:01.525Z,6.82
2023-04-15T06:26:28.822Z,6.95
2023-04-15T06:28:55.818Z,7.10
2023-04-15T06:31:22.943Z,6.80
2023-04-15T06:33:50.048Z,7.53
2023-04-15T06:36:17.196Z,6.70
2023-04-15T06:38:44.082Z,7.40
2023-04-15T06:41:13.847Z,8.10
2023-04-15T06:43:40.853Z,8.23
2023-04-15T06:46:07.892Z,7.40
2023-04-15T06:48:34.846Z,7.05
2023-04-15T06:51:02.334Z,7.78
2023-04-15T06:53:29.443Z,7.18
2023-04-15T06:55:56.561Z,7.90
2023-04-15T06:58:23.511Z,8.15
2023-04-15T07:00:51.247Z,7.78
2023-04-15T07:03:18.461Z,7.13
2023-04-15T07:05:45.857Z,8.10
2023-04-15T07:08:12.904Z,7.78
2023-04-15T07:10:39.980Z,7.75
2023-04-15T07:13:08.907Z,8.52
2023-04-15T07:15:35.961Z,7.90
2023-04-15T07:18:03.056Z,8.05
2023-04-15T07:20:30.107Z,8.13
2023-04-15T07:22:57.670Z,8.43
2023-04-15T07:25:24.722Z,8.52
2023-04-15T07:27:52.881Z,8.65
2023-04-15T07:30:20.010Z,8.52
2023-04-15T07:32:47.313Z,7.97
2023-04-15T07:35:14.855Z,7.60
2023-04-15T07:37:43.381Z,7.57
2023-04-15T07:40:10.947Z,7.80
2023-04-15T07:42:40.685Z,7.05
2023-04-15T07:47:49.222Z,6.63
2023-04-15T07:50:17.559Z,6.50
2023-04-15T07:52:47.256Z,6.00
2023-04-15T07:55:14.429Z,6.20
2023-04-15T07:57:44.259Z,5.72
2023-04-15T08:00:11.778Z,6.43
2023-04-15T08:02:40.481Z,6.30
2023-04-15T08:05:08.098Z,6.22
2023-04-15T08:07:36.879Z,5.93
2023-04-15T08:10:04.131Z,6.10
2023-04-15T08:12:31.811Z,6.40
2023-04-15T08:14:58.834Z,5.78
2023-04-15T08:17:26.462Z,6.05
2023-04-15T08:19:53.979Z,5.78
2023-04-15T08:22:21.985Z,5.70
2023-04-15T08:24:50.207Z,5.80
2023-04-15T08:27:17.567Z,5.20
2023-04-15T08:29:45.760Z,5.38
2023-04-15T08:32:12.886Z,5.68
2023-04-15T08:34:39.986Z,5.40
2023-04-15T08:37:07.122Z,5.50
2023-04-15T08:39:34.058Z,5.18
2023-04-15T08:42:02.753Z,5.07
2023-04-15T08:44:33.655Z,4.80
2023-04-15T08:47:06.011Z,5.40
2023-04-15T08:49:41.229Z,4.40
2023-04-15T08:52:09.511Z,3.97
2023-04-15T08:54:36.794Z,3.63
2023-04-15T08:57:04.518Z,3.58
2023-04-15T08:59:32.092Z,3.55
2023-04-15T09:01:59.548Z,3.40
2023-04-15T09:04:26.489Z,3.40
2023-04-15T09:06:53.410Z,3.30
2023-04-15T09:09:20.465Z,3.58
2023-04-15T09:11:47.471Z,3.80
2023-04-15T09:14:14.318Z,3.65
2023-04-15T09:17:01.418Z,4.20
2023-04-15T09:19:28.981Z,3.58
2023-04-15T09:21:59.134Z,3.92
2023-04-15T09:24:33.653Z,3.13
2023-04-15T09:27:01.291Z,4.10
2023-04-15T09:29:28.352Z,4.35
2023-04-15T09:31:55.441Z,4.50
2023-04-15T09:34:35.019Z,4.28
2023-04-15T09:37:02.290Z,3.87
2023-04-15T09:39:49.968Z,3.13
2023-04-15T09:42:24.050Z,3.15
2023-04-15T09:44:52.741Z,3.10
2023-04-15T09:47:45.897Z,3.03
2023-04-15T09:50:12.779Z,2.95
2023-04-15T09:52:44.020Z,2.60
2023-04-15T09:55:12.268Z,2.95
2023-04-15T09:57:41.524Z,3.10
2023-04-15T10:00:11.236Z,3.15
2023-04-15T10:02:42.994Z,3.42
2023-04-15T10:05:13.955Z,3.45
2023-04-15T10:07:42.939Z,3.47
2023-04-15T10:10:11.485Z,3.47
2023-04-15T10:12:41.619Z,3.33
2023-04-15T10:15:15.679Z,2.92
2023-04-15T10:17:44.877Z,3.75
2023-04-15T10:20:14.653Z,3.55
2023-04-15T10:22:43.424Z,3.42
2023-04-15T10:25:12.204Z,3.05
2023-04-15T10:27:42.231Z,3.15
2023-04-15T10:30:09.765Z,3.13
2023-04-15T10:32:40.158Z,3.45
2023-04-15T10:35:10.946Z,3.40
2023-04-15T10:37:39.112Z,3.90
2023-04-15T10:40:28.387Z,4.00
2023-04-15T10:43:00.105Z,3.00
2023-04-15T10:45:37.569Z,3.55
2023-04-15T10:48:07.469Z,3.22
2023-04-15T10:50:34.973Z,3.13
2023-04-15T10:53:04.897Z,3.15
2023-04-15T10:55:35.006Z,3.17
2023-04-15T10:58:02.774Z,3.10
2023-04-15T11:00:32.802Z,3.42
2023-04-15T11:03:08.132Z,3.70
2023-04-15T11:05:51.611Z,3.63
2023-04-15T11:08:18.878Z,3.95
2023-04-15T11:10:45.717Z,3.50
2023-04-15T11:13:12.477Z,3.75
2023-04-15T11:15:43.054Z,3.65
2023-04-15T11:18:14.588Z,3.60
2023-04-15T11:20:46.511Z,3.70
2023-04-15T11:23:18.081Z,3.60
2023-04-15T11:25:46.055Z,3.00
2023-04-15T11:28:13.912Z,3.08
2023-04-15T11:30:42.243Z,2.90
2023-04-15T11:33:12.179Z,2.90
2023-04-15T11:35:42.538Z,3.08
2023-04-15T11:40:38.542Z,2.50
2023-04-15T11:43:13.575Z,2.28
2023-04-15T11:45:57.903Z,2.80
2023-04-15T11:48:27.413Z,2.30
2023-04-15T11:50:56.454Z,2.40
2023-04-15T11:53:24.185Z,2.65
2023-04-15T11:55:53.271Z,2.53
2023-04-15T11:58:23.682Z,2.25
2023-04-15T12:03:30.421Z,2.60
2023-04-15T12:06:04.430Z,2.42
2023-04-15T12:09:09.898Z,2.50
2023-04-15T12:11:40.996Z,2.20
2023-04-15T12:14:26.720Z,2.67
2023-04-15T12:16:56.639Z,1.95
2023-04-15T12:19:30.534Z,2.10
2023-04-15T12:22:17.692Z,2.13
2023-04-15T12:24:47.984Z,2.00
2023-04-15T12:29:44.052Z,1.80
2023-04-15T12:32:16.301Z,2.00
2023-04-15T12:34:51.859Z,2.00
2023-04-15T12:37:19.616Z,1.90
2023-04-15T12:39:48.976Z,2.10
2023-04-15T12:42:16.399Z,1.90
2023-04-15T12:44:43.379Z,2.10
2023-04-15T12:47:11.458Z,1.98
2023-04-15T12:49:39.444Z,1.92
2023-04-15T12:52:06.846Z,2.17
2023-04-15T12:54:34.668Z,2.10
2023-04-15T12:57:05.952Z,2.25
2023-04-15T12:59:33.713Z,2.10
2023-04-15T13:02:01.212Z,2.20
2023-04-15T13:04:30.776Z,2.05
2023-04-15T13:06:58.215Z,2.22
2023-04-15T13:09:25.214Z,2.15
2023-04-15T13:11:52.941Z,1.70
2023-04-15T13:14:19.901Z,1.58
2023-04-15T13:16:47.291Z,1.90
2023-04-15T13:19:14.364Z,1.95
2023-04-15T13:21:41.490Z,2.60
2023-04-15T13:24:09.480Z,2.95
2023-04-15T13:26:36.437Z,2.30
2023-04-15T13:29:03.313Z,2.00
2023-04-15T13:31:30.117Z,1.75
2023-04-15T13:33:57.677Z,1.77
2023-04-15T13:36:24.642Z,1.77
2023-04-15T13:38:51.967Z,2.10
2023-04-15T13:41:18.937Z,2.00
2023-04-15T13:43:46.321Z,1.92
2023-04-15T13:46:13.266Z,2.17
2023-04-15T13:48:40.272Z,1.80
2023-04-15T13:51:07.096Z,1.90
2023-04-15T13:53:38.771Z,2.05
2023-04-15T13:56:10.342Z,1.98
2023-04-15T13:58:37.994Z,1.98
2023-04-15T14:01:07.076Z,2.15
2023-04-15T14:03:38.369Z,1.98
2023-04-15T14:06:06.203Z,1.80
2023-04-15T14:08:33.666Z,1.52
2023-04-15T14:11:00.649Z,1.92
2023-04-15T14:13:27.624Z,1.70
2023-04-15T14:15:54.448Z,1.95
2023-04-15T14:18:21.346Z,1.95
2023-04-15T14:20:48.276Z,1.60
2023-04-15T14:23:15.134Z,1.50
2023-04-15T14:25:41.972Z,1.83
2023-04-15T14:28:08.896Z,1.50
2023-04-15T14:30:36.033Z,1.60
2023-04-15T14:33:03.325Z,1.80
2023-04-15T14:35:30.692Z,1.73
2023-04-15T14:37:57.802Z,2.08
2023-04-15T14:40:24.616Z,1.92
2023-04-15T14:42:51.458Z,2.42
2023-04-15T14:45:18.496Z,2.00
2023-04-15T14:47:45.439Z,2.00
2023-04-15T14:50:12.664Z,1.90
2023-04-15T14:52:39.835Z,2.30
2023-04-15T14:55:08.036Z,1.80
2023-04-15T14:57:34.946Z,1.67
2023-04-15T15:00:02.292Z,1.50
2023-04-15T15:02:38.541Z,1.70
2023-04-15T15:05:06.984Z,3.28
2023-04-15T15:07:34.016Z,1.92
2023-04-15T15:10:00.959Z,1.90
2023-04-15T15:12:28.039Z,1.65
2023-04-15T15:14:56.199Z,1.90
2023-04-15T15:17:23.293Z,1.60
2023-04-15T15:19:50.219Z,1.50
2023-04-15T15:22:18.880Z,1.80
2023-04-15T15:24:47.093Z,1.88
2023-04-15T15:27:14.271Z,2.42
2023-04-15T15:29:41.307Z,2.50
2023-04-15T15:32:08.231Z,1.60
2023-04-15T15:34:35.186Z,1.85
2023-04-15T15:37:02.208Z,1.67
2023-04-15T15:39:29.275Z,2.03
2023-04-15T15:41:56.598Z,1.70
2023-04-15T15:44:23.887Z,1.58
2023-04-15T15:46:51.319Z,1.33
2023-04-15T15:49:18.472Z,1.70
2023-04-15T15:51:46.020Z,1.75
2023-04-15T15:54:13.139Z,1.58
2023-04-15T15:56:40.140Z,1.90
2023-04-15T15:59:07.170Z,1.70
2023-04-15T16:01:34.438Z,1.85
2023-04-15T16:04:02.779Z,2.00
2023-04-15T16:06:29.839Z,2.33
2023-04-15T16:08:56.683Z,1.92
2023-04-15T16:11:23.886Z,1.70
2023-04-15T16:13:51.546Z,1.52
2023-04-15T16:16:18.501Z,1.60
2023-04-15T16:18:45.763Z,1.42
2023-04-15T16:21:12.691Z,2.28
2023-04-15T16:23:40.667Z,2.17
2023-04-15T16:26:07.607Z,1.80
2023-04-15T16:28:34.512Z,1.80
2023-04-15T16:31:01.420Z,1.92
2023-04-15T16:33:28.445Z,1.98
2023-04-15T16:35:55.467Z,1.80
2023-04-15T16:38:22.433Z,1.67
2023-04-15T16:40:49.578Z,1.70
2023-04-15T16:43:16.559Z,1.80
2023-04-15T16:45:45.270Z,2.05
2023-04-15T16:48:12.203Z,2.00
2023-04-15T16:50:39.080Z,2.00
2023-04-15T16:53:06.165Z,1.90
2023-04-15T16:55:33.015Z,2.00
2023-04-15T16:58:03.223Z,2.00
2023-04-15T17:00:31.876Z,1.80
2023-04-15T17:03:00.717Z,1.90
2023-04-15T17:05:27.991Z,4.57
2023-04-15T17:07:55.507Z,2.67
2023-04-15T17:10:22.824Z,2.50
2023-04-15T17:12:52.206Z,1.92
2023-04-15T17:15:20.378Z,2.73
2023-04-15T17:17:47.287Z,1.85
2023-04-15T17:20:15.073Z,2.28
2023-04-15T17:22:42.098Z,2.00
2023-04-15T17:25:09.287Z,1.50
2023-04-15T17:27:36.519Z,1.60
2023-04-15T17:30:03.512Z,1.55
2023-04-15T17:32:34.563Z,1.80
2023-04-15T17:35:06.035Z,1.38
2023-04-15T17:37:34.221Z,1.52
2023-04-15T17:40:01.364Z,1.50
2023-04-15T17:42:28.735Z,1.55
2023-04-15T17:44:55.659Z,1.58
2023-04-15T17:47:22.704Z,1.70
2023-04-15T17:49:49.550Z,2.05
2023-04-15T17:52:16.505Z,1.95
2023-04-15T17:54:43.411Z,1.73
2023-04-15T17:57:10.340Z,2.00
2023-04-15T17:59:37.188Z,2.20
2023-04-15T18:02:04.420Z,2.03
2023-04-15T18:04:31.725Z,1.77
2023-04-15T18:06:58.718Z,1.70
2023-04-15T18:09:25.827Z,1.48
2023-04-15T18:11:53.012Z,2.00
2023-04-15T18:14:31.117Z,1.70
2023-04-15T18:17:03.612Z,1.90
2023-04-15T18:19:31.865Z,1.45
2023-04-15T18:22:00.421Z,1.70
2023-04-15T18:24:28.071Z,2.33
2023-04-15T18:26:55.042Z,1.80
2023-04-15T18:29:22.578Z,2.55
2023-04-15T18:31:49.681Z,1.80
2023-04-15T18:34:16.652Z,2.10
2023-04-15T18:36:43.591Z,1.85
2023-04-15T18:39:10.665Z,1.70
2023-04-15T18:41:37.582Z,2.38
2023-04-15T18:44:04.576Z,1.70
2023-04-15T18:46:31.474Z,1.73
2023-04-15T18:48:58.376Z,2.10
2023-04-15T18:51:25.921Z,2.08
2023-04-15T18:53:52.936Z,1.55
2023-04-15T18:56:19.903Z,2.08
2023-04-15T18:59:08.551Z,2.30
2023-04-15T19:01:37.315Z,1.80
2023-04-15T19:04:04.439Z,1.98
2023-04-15T19:06:32.128Z,2.00
2023-04-15T19:08:59.237Z,2.00
2023-04-15T19:11:26.399Z,1.70
2023-04-15T19:13:53.552Z,1.85
2023-04-15T19:16:21.131Z,2.35
2023-04-15T19:18:47.956Z,1.70
2023-04-15T19:21:15.666Z,2.10
2023-04-15T19:23:43.157Z,2.08
2023-04-15T19:26:10.563Z,1.73
2023-04-15T19:28:37.600Z,2.13
2023-04-15T19:31:04.746Z,2.10
2023-04-15T19:33:31.948Z,1.60
2023-04-15T19:36:02.118Z,1.70
2023-04-15T19:38:29.085Z,1.85
2023-04-15T19:40:56.080Z,1.98
2023-04-15T19:43:23.058Z,1.70
2023-04-15T19:45:52.973Z,2.15
2023-04-15T19:48:20.478Z,1.83
2023-04-15T19:50:47.525Z,1.92
2023-04-15T19:53:14.624Z,1.67
2023-04-15T19:55:41.722Z,1.90
2023-04-15T19:58:08.580Z,2.38
2023-04-15T20:00:36.276Z,1.92
2023-04-15T20:03:03.531Z,1.75
2023-04-15T20:05:30.673Z,1.83
2023-04-15T20:07:59.708Z,1.80
2023-04-15T20:10:27.287Z,2.58
2023-04-15T20:12:54.219Z,1.92
2023-04-15T20:15:22.690Z,1.70
2023-04-15T20:17:50.418Z,1.88
2023-04-15T20:20:17.338Z,1.60
2023-04-15T20:22:44.386Z,1.85
2023-04-15T20:25:11.383Z,1.80
2023-04-15T20:27:38.277Z,1.52
2023-04-15T20:30:05.786Z,1.90
2023-04-15T20:32:35.895Z,1.95
2023-04-15T20:35:04.960Z,2.03
2023-04-15T20:37:33.673Z,2.20
2023-04-15T20:40:01.628Z,1.73
2023-04-15T20:42:32.389Z,1.60
2023-04-15T20:47:26.418Z,1.83
2023-04-15T20:49:54.075Z,2.15
2023-04-15T20:52:21.293Z,1.60
2023-04-15T20:54:48.138Z,2.05
2023-04-15T20:57:15.085Z,1.92
2023-04-15T20:59:41.980Z,1.90
2023-04-15T21:02:09.252Z,1.95
2023-04-15T21:04:38.039Z,2.00
2023-04-15T21:07:04.995Z,1.52
2023-04-15T21:09:32.163Z,2.08
2023-04-15T21:12:01.721Z,2.03
2023-04-15T21:14:29.864Z,1.80
2023-04-15T21:16:59.703Z,1.90
2023-04-15T21:19:26.671Z,2.17
2023-04-15T21:21:53.537Z,2.20
2023-04-15T21:24:20.351Z,1.85
2023-04-15T21:26:47.230Z,2.40
2023-04-15T21:29:14.476Z,2.13
2023-04-15T21:31:41.672Z,1.65
2023-04-15T21:34:09.072Z,1.92
2023-04-15T21:36:36.903Z,1.80
2023-04-15T21:39:04.654Z,2.00
2023-04-15T21:41:32.724Z,2.20
2023-04-15T21:43:59.675Z,1.67
2023-04-15T21:46:33.340Z,1.90
2023-04-15T21:49:02.451Z,2.38
2023-04-15T21:51:29.459Z,2.00
2023-04-15T21:53:56.349Z,2.20
2023-04-15T21:56:24.392Z,2.38
2023-04-15T21:58:56.926Z,2.10
2023-04-15T22:01:26.752Z,1.98
2023-04-15T22:03:53.926Z,1.70
2023-04-15T22:06:21.518Z,1.60
2023-04-15T22:08:56.921Z,1.85
2023-04-15T22:11:28.514Z,2.20
2023-04-15T22:13:57.290Z,1.95
2023-04-15T22:16:27.752Z,2.55
2023-04-15T22:21:22.701Z,2.00
2023-04-15T22:23:49.817Z,1.80
2023-04-15T22:26:16.856Z,2.00
2023-04-15T22:28:43.830Z,2.13
2023-04-15T22:31:10.865Z,2.03
2023-04-15T22:33:38.958Z,2.05
2023-04-15T22:36:06.415Z,2.33
2023-04-15T22:38:33.419Z,1.98
2023-04-15T22:41:00.458Z,2.00
2023-04-15T22:43:27.625Z,1.88
2023-04-15T22:45:55.248Z,1.90
2023-04-15T22:48:23.024Z,2.03
2023-04-15T22:50:50.306Z,2.05
2023-04-15T22:53:17.896Z,1.92
2023-04-15T22:55:47.810Z,2.08
2023-04-15T22:58:15.973Z,2.17
2023-04-15T23:00:42.934Z,2.00
2023-04-15T23:03:10.236Z,2.10
2023-04-15T23:05:37.488Z,2.03
2023-04-15T23:08:04.617Z,1.80
2023-04-15T23:10:31.781Z,3.13
2023-04-15T23:12:58.976Z,2.58
2023-04-15T23:15:26.056Z,2.30
2023-04-15T23:17:53.151Z,2.40
2023-04-15T23:20:20.307Z,2.38
2023-04-15T23:22:47.242Z,1.95
2023-04-15T23:25:14.390Z,2.13
2023-04-15T23:27:41.351Z,2.58
2023-04-15T23:30:08.838Z,2.08
2023-04-15T23:32:35.908Z,2.33
2023-04-15T23:35:02.863Z,2.10
2023-04-15T23:37:31.609Z,3.67
2023-04-15T23:39:58.562Z,2.25
2023-04-15T23:42:26.058Z,3.53
2023-04-15T23:44:53.052Z,2.13
2023-04-15T23:47:19.975Z,2.20
2023-04-15T23:49:46.908Z,2.10
2023-04-15T23:52:13.894Z,2.00
2023-04-15T23:54:41.121Z,2.20
2023-04-15T23:57:08.160Z,2.10
2023-04-15T23:59:35.106Z,2.15
